createdAt,value
2024-01-06T00:02:11.403Z,61.35
2024-01-06T00:04:38.129Z,61.71
2024-01-06T00:07:09.318Z,61.75
2024-01-06T00:09:36.472Z,61.78
2024-01-06T00:12:03.602Z,61.14
2024-01-06T00:14:30.386Z,60.75
2024-01-06T00:16:57.187Z,61.67
2024-01-06T00:19:24.103Z,61.59
2024-01-06T00:21:51.630Z,61.47
2024-01-06T00:24:18.643Z,61.56
2024-01-06T00:26:45.500Z,61.71
2024-01-06T00:29:13.078Z,61.86
2024-01-06T00:31:39.992Z,62.03
2024-01-06T00:34:07.137Z,62.25
2024-01-06T00:36:34.030Z,61.72
2024-01-06T00:39:01.140Z,62.07
2024-01-06T00:41:27.937Z,61.81
2024-01-06T00:43:54.688Z,61.79
2024-01-06T00:46:21.683Z,61.73
2024-01-06T00:48:48.620Z,62.16
2024-01-06T00:51:15.545Z,62.57
2024-01-06T00:53:42.642Z,63.15
2024-01-06T01:03:47.593Z,65.02
2024-01-06T01:06:23.117Z,64.26
2024-01-06T01:08:50.240Z,63.59
2024-01-06T01:11:17.225Z,63.63
2024-01-06T01:13:44.300Z,63.69
2024-01-06T01:16:14.396Z,64.04
2024-01-06T01:18:43.903Z,63.55
2024-01-06T01:21:10.989Z,63.38
2024-01-06T01:23:37.858Z,63.07
2024-01-06T01:26:04.826Z,64.07
2024-01-06T01:28:32.002Z,65.33
2024-01-06T01:30:58.956Z,64.01
2024-01-06T01:33:26.688Z,63.96
2024-01-06T01:35:53.725Z,63.96
2024-01-06T01:38:24.669Z,63.04
2024-01-06T01:40:51.554Z,63.34
2024-01-06T01:43:22.490Z,64.15
2024-01-06T01:45:55.514Z,64.20
2024-01-06T01:48:36.414Z,64.60
2024-01-06T01:51:03.817Z,63.54
2024-01-06T01:53:32.793Z,63.20
2024-01-06T01:55:59.890Z,63.24
2024-01-06T01:58:27.189Z,62.94
2024-01-06T02:00:54.718Z,63.78
2024-01-06T02:03:23.629Z,63.18
2024-01-06T02:05:50.774Z,63.24
2024-01-06T02:08:17.597Z,63.14
2024-01-06T02:10:47.475Z,62.89
2024-01-06T02:13:14.385Z,62.87
2024-01-06T02:15:41.387Z,62.74
2024-01-06T02:18:08.725Z,62.27
2024-01-06T02:20:37.554Z,63.04
2024-01-06T02:23:04.907Z,62.56
2024-01-06T02:25:32.293Z,63.27
2024-01-06T02:27:59.110Z,63.09
2024-01-06T02:30:26.299Z,62.85
2024-01-06T02:32:53.948Z,64.09
2024-01-06T02:35:22.157Z,64.01
2024-01-06T02:37:48.926Z,64.27
2024-01-06T02:40:15.844Z,63.97
2024-01-06T02:42:42.600Z,64.20
2024-01-06T02:45:10.830Z,63.37
2024-01-06T02:47:38.716Z,63.53
2024-01-06T02:50:10.105Z,63.63
2024-01-06T02:52:37.105Z,64.03
2024-01-06T02:55:04.069Z,63.65
2024-01-06T02:57:32.090Z,64.55
2024-01-06T02:59:58.817Z,64.21
2024-01-06T03:02:25.804Z,64.90
2024-01-06T03:04:52.405Z,64.91
2024-01-06T03:07:19.592Z,64.88
2024-01-06T03:09:46.860Z,65.03
2024-01-06T03:12:14.001Z,64.21
2024-01-06T03:14:40.867Z,64.15
2024-01-06T03:17:07.838Z,64.66
2024-01-06T03:19:35.170Z,64.67
2024-01-06T03:22:01.982Z,64.18
2024-01-06T03:24:28.733Z,63.98
2024-01-06T03:26:55.601Z,63.83
2024-01-06T03:29:23.564Z,64.11
2024-01-06T03:31:50.570Z,63.86
2024-01-06T03:34:17.811Z,63.63
2024-01-06T03:36:44.702Z,64.09
2024-01-06T03:39:11.958Z,64.17
2024-01-06T03:41:38.901Z,64.46
2024-01-06T03:44:06.164Z,65.32
2024-01-06T03:46:34.835Z,65.65
2024-01-06T03:49:02.215Z,67.22
2024-01-06T03:51:29.532Z,67.44
2024-01-06T03:53:56.431Z,67.98
2024-01-06T03:56:23.085Z,67.07
2024-01-06T03:58:50.162Z,67.07
2024-01-06T04:01:17.005Z,68.13
2024-01-06T04:03:43.988Z,67.05
2024-01-06T04:06:11.606Z,65.89
2024-01-06T04:08:40.251Z,65.73
2024-01-06T04:11:07.256Z,64.98
2024-01-06T04:13:33.992Z,64.88
2024-01-06T04:16:00.665Z,65.29
2024-01-06T04:18:27.775Z,66.11
2024-01-06T04:20:54.641Z,65.57
2024-01-06T04:23:24.510Z,66.45
2024-01-06T04:25:52.973Z,65.66
2024-01-06T04:28:19.985Z,67.05
2024-01-06T04:30:46.961Z,66.92
2024-01-06T04:33:13.855Z,67.18
2024-01-06T04:35:40.719Z,68.45
2024-01-06T04:38:07.429Z,68.31
2024-01-06T04:40:34.177Z,68.54
2024-01-06T04:43:01.392Z,69.02
2024-01-06T04:45:28.312Z,68.88
2024-01-06T04:47:55.249Z,67.65
2024-01-06T04:50:23.432Z,66.01
2024-01-06T04:52:50.240Z,65.68
2024-01-06T04:55:16.878Z,65.43
2024-01-06T04:57:43.764Z,65.33
2024-01-06T05:00:10.822Z,65.21
2024-01-06T05:02:37.755Z,66.33
2024-01-06T05:05:04.930Z,66.42
2024-01-06T05:07:31.657Z,66.65
2024-01-06T05:09:58.399Z,66.70
2024-01-06T05:12:25.222Z,66.51
2024-01-06T05:14:52.030Z,67.73
2024-01-06T05:17:18.835Z,69.05
2024-01-06T05:19:45.620Z,69.60
2024-01-06T05:22:16.024Z,70.06
2024-01-06T05:24:42.972Z,69.47
2024-01-06T05:27:12.471Z,68.64
2024-01-06T05:29:40.708Z,67.17
2024-01-06T05:32:07.630Z,66.63
2024-01-06T05:34:34.682Z,66.62
2024-01-06T05:37:01.659Z,67.22
2024-01-06T05:39:28.447Z,66.79
2024-01-06T05:41:55.195Z,66.11
2024-01-06T05:44:21.833Z,65.14
2024-01-06T05:46:48.656Z,65.92
2024-01-06T05:49:15.710Z,66.02
2024-01-06T05:51:46.732Z,65.87
2024-01-06T05:54:14.467Z,66.16
2024-01-06T05:56:41.543Z,66.05
2024-01-06T05:59:08.504Z,66.29
2024-01-06T06:01:35.495Z,65.83
2024-01-06T06:04:02.502Z,65.79
2024-01-06T06:06:29.605Z,65.90
2024-01-06T06:08:57.283Z,65.61
2024-01-06T06:11:24.106Z,66.26
2024-01-06T06:13:51.319Z,65.72
2024-01-06T06:16:18.169Z,66.62
2024-01-06T06:18:45.146Z,66.77
2024-01-06T06:21:12.058Z,67.15
2024-01-06T06:23:38.720Z,66.32
2024-01-06T06:26:09.667Z,66.35
2024-01-06T06:28:36.724Z,66.92
2024-01-06T06:31:04.124Z,67.06
2024-01-06T06:33:31.930Z,66.37
2024-01-06T06:35:58.800Z,67.16
2024-01-06T06:38:26.775Z,66.42
2024-01-06T06:40:53.850Z,65.53
2024-01-06T06:43:20.978Z,66.63
2024-01-06T06:45:47.872Z,67.33
2024-01-06T06:48:14.629Z,68.13
2024-01-06T06:50:44.791Z,67.90
2024-01-06T06:53:11.667Z,67.57
2024-01-06T06:55:38.687Z,67.06
2024-01-06T06:58:07.027Z,67.54
2024-01-06T07:00:34.432Z,67.57
2024-01-06T07:03:01.792Z,68.56
2024-01-06T07:05:28.826Z,68.79
2024-01-06T07:07:56.186Z,68.34
2024-01-06T07:10:23.677Z,68.13
2024-01-06T07:12:50.446Z,68.35
2024-01-06T07:15:17.496Z,69.10
2024-01-06T07:17:44.682Z,69.30
2024-01-06T07:20:11.946Z,69.95
2024-01-06T07:22:38.836Z,69.04
2024-01-06T07:25:07.133Z,68.54
2024-01-06T07:27:34.383Z,68.44
2024-01-06T07:30:02.260Z,68.28
2024-01-06T07:32:29.796Z,66.98
2024-01-06T07:34:56.808Z,67.74
2024-01-06T07:37:23.611Z,69.10
2024-01-06T07:39:50.524Z,68.32
2024-01-06T07:42:17.428Z,67.74
2024-01-06T07:44:44.177Z,67.54
2024-01-06T07:47:11.328Z,68.00
2024-01-06T07:49:38.370Z,67.27
2024-01-06T07:52:05.354Z,67.54
2024-01-06T07:54:32.596Z,67.82
2024-01-06T07:57:00.431Z,68.56
2024-01-06T07:59:28.968Z,68.77
2024-01-06T08:01:55.892Z,69.19
2024-01-06T08:04:22.813Z,68.18
2024-01-06T08:06:50.145Z,67.64
2024-01-06T08:09:17.586Z,66.66
2024-01-06T08:11:46.918Z,67.83
2024-01-06T08:14:14.074Z,67.52
2024-01-06T08:16:40.849Z,67.83
2024-01-06T08:19:07.704Z,66.97
2024-01-06T08:21:35.806Z,66.51
2024-01-06T08:24:03.511Z,66.67
2024-01-06T08:26:30.410Z,68.49
2024-01-06T08:28:59.329Z,67.94
2024-01-06T08:31:26.210Z,67.40
2024-01-06T08:33:53.582Z,66.64
2024-01-06T08:36:21.805Z,67.22
2024-01-06T08:38:48.606Z,67.35
2024-01-06T08:41:15.499Z,66.58
2024-01-06T08:43:42.084Z,66.63
2024-01-06T08:46:08.874Z,66.65
2024-01-06T08:48:36.316Z,67.01
2024-01-06T08:51:03.666Z,67.58
2024-01-06T08:53:30.456Z,68.47
2024-01-06T08:55:57.289Z,68.43
2024-01-06T08:58:24.033Z,69.04
2024-01-06T09:00:54.636Z,67.89
2024-01-06T09:03:27.666Z,69.66
2024-01-06T09:05:56.879Z,69.20
2024-01-06T09:08:25.974Z,70.90
2024-01-06T09:10:58.048Z,68.75
2024-01-06T09:13:25.232Z,68.19
2024-01-06T09:15:55.619Z,68.82
2024-01-06T09:18:22.650Z,68.81
2024-01-06T09:20:49.466Z,69.48
2024-01-06T09:23:17.366Z,68.72
2024-01-06T09:25:44.195Z,70.14
2024-01-06T09:28:12.032Z,69.58
2024-01-06T09:30:39.176Z,69.49
2024-01-06T09:33:06.371Z,68.04
2024-01-06T09:35:33.832Z,70.95
2024-01-06T09:38:00.848Z,72.27
2024-01-06T09:40:27.773Z,71.38
2024-01-06T09:42:56.228Z,70.33
2024-01-06T09:45:24.711Z,70.45
2024-01-06T09:47:53.087Z,72.03
2024-01-06T09:50:20.663Z,71.13
2024-01-06T09:52:55.017Z,72.01
2024-01-06T09:55:29.606Z,72.84
2024-01-06T09:57:56.737Z,71.29
2024-01-06T10:00:23.719Z,70.97
2024-01-06T10:02:52.359Z,69.21
2024-01-06T10:05:19.460Z,68.00
2024-01-06T10:07:46.757Z,68.53
2024-01-06T10:10:14.754Z,70.78
2024-01-06T10:12:43.168Z,70.64
2024-01-06T10:15:13.843Z,69.05
2024-01-06T10:17:41.541Z,69.10
2024-01-06T10:20:13.571Z,69.17
2024-01-06T10:22:43.306Z,68.45
2024-01-06T10:25:12.902Z,67.49
2024-01-06T10:27:40.768Z,66.37
2024-01-06T10:30:09.122Z,66.81
2024-01-06T10:32:37.625Z,66.13
2024-01-06T10:35:07.518Z,68.24
2024-01-06T10:37:34.435Z,69.00
2024-01-06T10:40:11.677Z,67.73
2024-01-06T10:42:42.963Z,66.45
2024-01-06T10:45:11.717Z,71.71
2024-01-06T10:47:39.955Z,69.39
2024-01-06T10:50:09.169Z,70.19
2024-01-06T10:52:36.796Z,70.57
2024-01-06T10:55:04.244Z,70.85
2024-01-06T10:57:33.141Z,69.04
2024-01-06T11:00:00.881Z,69.74
2024-01-06T11:02:30.166Z,68.07
2024-01-06T11:04:57.073Z,67.29
2024-01-06T11:07:27.268Z,67.39
2024-01-06T11:09:59.802Z,66.83
2024-01-06T11:12:27.736Z,67.08
2024-01-06T11:14:55.500Z,66.79
2024-01-06T11:17:56.614Z,65.98
2024-01-06T11:20:24.218Z,65.94
2024-01-06T11:22:53.709Z,65.99
2024-01-06T11:25:23.088Z,67.47
2024-01-06T11:27:52.588Z,66.63
2024-01-06T11:30:35.129Z,65.87
2024-01-06T11:33:06.052Z,65.28
2024-01-06T11:35:32.939Z,65.58
2024-01-06T11:38:05.240Z,65.12
2024-01-06T11:40:35.213Z,64.99
2024-01-06T11:43:10.784Z,65.47
2024-01-06T11:45:41.464Z,64.95
2024-01-06T11:48:10.836Z,65.76
2024-01-06T11:50:40.097Z,65.79
2024-01-06T11:53:08.816Z,65.01
2024-01-06T11:55:36.215Z,66.18
2024-01-06T11:58:11.752Z,67.89
2024-01-06T12:00:40.848Z,67.37
2024-01-06T12:03:08.402Z,67.26
2024-01-06T12:05:35.572Z,68.49
2024-01-06T12:08:09.439Z,70.56
2024-01-06T12:10:38.009Z,69.36
2024-01-06T12:13:09.673Z,70.63
2024-01-06T12:15:40.964Z,70.73
2024-01-06T12:18:08.794Z,69.22
2024-01-06T12:20:35.918Z,69.73
2024-01-06T12:23:07.468Z,67.61
2024-01-06T12:25:39.961Z,67.52
2024-01-06T12:28:12.462Z,67.66
2024-01-06T12:30:40.417Z,67.35
2024-01-06T12:33:08.473Z,67.02
2024-01-06T12:35:35.856Z,66.10
2024-01-06T12:40:34.043Z,67.98
2024-01-06T12:43:00.703Z,68.54
2024-01-06T12:45:29.121Z,66.21
2024-01-06T12:47:56.031Z,65.97
2024-01-06T12:50:22.892Z,65.12
2024-01-06T12:52:49.836Z,66.62
2024-01-06T12:55:16.868Z,67.83
2024-01-06T12:57:44.340Z,69.62
2024-01-06T13:00:13.397Z,67.54
2024-01-06T13:03:00.478Z,66.41
2024-01-06T13:05:34.876Z,66.18
2024-01-06T13:08:03.144Z,66.75
2024-01-06T13:10:29.929Z,65.71
2024-01-06T13:12:56.707Z,66.43
2024-01-06T13:15:23.417Z,66.06
2024-01-06T13:17:52.790Z,65.56
2024-01-06T13:20:19.819Z,65.52
2024-01-06T13:22:46.442Z,65.72
2024-01-06T13:25:14.240Z,65.48
2024-01-06T13:27:41.184Z,65.89
2024-01-06T13:30:08.624Z,65.04
2024-01-06T13:32:35.584Z,65.04
2024-01-06T13:35:05.353Z,65.01
2024-01-06T13:37:34.953Z,64.30
2024-01-06T13:40:01.729Z,64.38
2024-01-06T13:42:28.686Z,64.63
2024-01-06T13:44:55.478Z,65.68
2024-01-06T13:47:22.601Z,64.33
2024-01-06T13:49:49.568Z,64.24
2024-01-06T13:52:16.513Z,64.64
2024-01-06T13:54:43.293Z,64.50
2024-01-06T13:57:10.017Z,63.81
2024-01-06T13:59:39.564Z,64.41
2024-01-06T14:02:08.828Z,63.93
2024-01-06T14:04:35.913Z,63.41
2024-01-06T14:07:05.329Z,63.47
2024-01-06T14:09:33.181Z,63.74
2024-01-06T14:12:00.237Z,63.82
2024-01-06T14:14:27.614Z,63.67
2024-01-06T14:16:54.576Z,64.02
2024-01-06T14:19:21.319Z,64.83
2024-01-06T14:21:48.121Z,63.70
2024-01-06T14:24:15.014Z,63.93
2024-01-06T14:26:43.615Z,63.72
2024-01-06T14:29:10.633Z,64.05
2024-01-06T14:31:37.578Z,63.78
2024-01-06T14:34:04.561Z,64.10
2024-01-06T14:36:31.606Z,63.98
2024-01-06T14:38:58.369Z,63.83
2024-01-06T14:41:25.005Z,63.97
2024-01-06T14:43:51.809Z,64.07
2024-01-06T14:46:19.846Z,65.02
2024-01-06T14:48:46.707Z,63.96
2024-01-06T14:51:13.706Z,64.78
2024-01-06T14:53:40.399Z,64.63
2024-01-06T14:56:07.051Z,64.47
2024-01-06T14:58:34.077Z,64.57
2024-01-06T15:01:01.049Z,64.73
2024-01-06T15:03:28.066Z,64.93
2024-01-06T15:05:54.962Z,65.72
2024-01-06T15:08:21.758Z,65.11
2024-01-06T15:10:48.355Z,64.76
2024-01-06T15:13:15.059Z,64.77
2024-01-06T15:15:41.716Z,65.07
2024-01-06T15:18:09.883Z,65.07
2024-01-06T15:20:36.696Z,65.17
2024-01-06T15:23:03.338Z,65.12
2024-01-06T15:25:30.118Z,65.88
2024-01-06T15:27:56.799Z,65.28
2024-01-06T15:30:25.081Z,65.59
2024-01-06T15:32:51.915Z,65.98
2024-01-06T15:35:20.046Z,66.61
2024-01-06T15:37:48.267Z,66.03
2024-01-06T15:40:17.291Z,65.23
2024-01-06T15:42:44.637Z,65.47
2024-01-06T15:45:12.770Z,65.39
2024-01-06T15:47:39.906Z,65.32
2024-01-06T15:50:10.098Z,66.42
2024-01-06T15:52:38.183Z,65.78
2024-01-06T15:55:05.435Z,66.02
2024-01-06T15:57:34.304Z,65.94
2024-01-06T16:00:01.068Z,66.25
2024-01-06T16:02:27.779Z,65.56
2024-01-06T16:04:58.610Z,65.41
2024-01-06T16:07:25.626Z,66.26
2024-01-06T16:09:52.392Z,66.15
2024-01-06T16:12:19.216Z,67.75
2024-01-06T16:14:46.137Z,68.94
2024-01-06T16:17:12.865Z,69.06
2024-01-06T16:19:40.358Z,68.05
2024-01-06T16:22:14.812Z,68.96
2024-01-06T16:24:44.878Z,69.54
2024-01-06T16:27:11.788Z,69.19
2024-01-06T16:29:39.946Z,68.98
2024-01-06T16:32:07.270Z,67.59
2024-01-06T16:34:35.166Z,67.51
2024-01-06T16:37:02.171Z,66.82
2024-01-06T16:39:30.618Z,66.98
2024-01-06T16:41:58.597Z,66.30
2024-01-06T16:44:25.955Z,66.94
2024-01-06T16:46:52.783Z,70.07
2024-01-06T16:49:19.756Z,68.52
2024-01-06T16:51:46.523Z,66.55
2024-01-06T16:54:13.473Z,66.88
2024-01-06T16:56:40.153Z,66.55
2024-01-06T16:59:07.715Z,66.95
2024-01-06T17:01:34.580Z,67.25
2024-01-06T17:04:01.642Z,67.71
2024-01-06T17:06:28.388Z,66.49
2024-01-06T17:08:55.067Z,66.74
2024-01-06T17:11:22.418Z,65.87
2024-01-06T17:13:49.338Z,66.78
2024-01-06T17:16:16.149Z,67.03
2024-01-06T17:18:43.417Z,66.59
2024-01-06T17:21:16.103Z,66.85
2024-01-06T17:23:44.360Z,66.30
2024-01-06T17:26:11.160Z,66.77
2024-01-06T17:28:38.140Z,67.45
2024-01-06T17:31:05.299Z,69.13
2024-01-06T17:33:32.257Z,69.87
2024-01-06T17:35:59.126Z,69.24
2024-01-06T17:38:25.893Z,69.49
2024-01-06T17:40:52.677Z,69.48
2024-01-06T17:43:19.501Z,69.59
2024-01-06T17:45:46.326Z,70.15
2024-01-06T17:48:13.409Z,69.70
2024-01-06T17:50:40.147Z,70.35
2024-01-06T17:53:07.299Z,70.93
2024-01-06T17:55:34.723Z,70.09
2024-01-06T17:58:01.578Z,69.80
2024-01-06T18:00:28.521Z,68.83
2024-01-06T18:02:55.586Z,68.17
2024-01-06T18:05:22.925Z,68.38
2024-01-06T18:07:49.781Z,67.48
2024-01-06T18:10:16.867Z,68.38
2024-01-06T18:12:44.195Z,68.21
2024-01-06T18:15:11.442Z,68.02
2024-01-06T18:17:42.778Z,68.79
2024-01-06T18:20:10.492Z,67.92
2024-01-06T18:22:37.378Z,67.21
2024-01-06T18:25:04.590Z,66.97
2024-01-06T18:27:31.674Z,67.86
2024-01-06T18:29:58.766Z,68.33
2024-01-06T18:32:25.630Z,68.73
2024-01-06T18:34:52.588Z,68.99
2024-01-06T18:37:19.727Z,67.68
2024-01-06T18:39:46.632Z,68.59
2024-01-06T18:42:19.024Z,68.38
2024-01-06T18:44:46.251Z,67.45
2024-01-06T18:47:15.454Z,66.61
2024-01-06T18:49:42.805Z,67.29
2024-01-06T18:52:09.829Z,67.10
2024-01-06T18:54:42.170Z,67.15
2024-01-06T18:57:13.183Z,66.98
2024-01-06T18:59:40.077Z,66.56
2024-01-06T19:02:08.286Z,67.37
2024-01-06T19:04:35.471Z,66.73
2024-01-06T19:07:02.431Z,66.66
2024-01-06T19:09:29.799Z,66.89
2024-01-06T19:11:59.775Z,66.30
2024-01-06T19:14:26.461Z,66.90
2024-01-06T19:16:53.403Z,67.18
2024-01-06T19:19:22.560Z,67.37
2024-01-06T19:21:51.102Z,67.90
2024-01-06T19:24:27.647Z,67.53
2024-01-06T19:27:00.557Z,67.36
2024-01-06T19:29:27.753Z,67.79
2024-01-06T19:31:54.941Z,66.37
2024-01-06T19:34:23.081Z,67.81
2024-01-06T19:36:49.939Z,68.02
2024-01-06T19:39:16.663Z,67.44
2024-01-06T19:41:43.381Z,66.00
2024-01-06T19:44:10.790Z,66.92
2024-01-06T19:46:37.790Z,65.80
2024-01-06T19:49:04.901Z,66.40
2024-01-06T19:51:31.989Z,65.84
2024-01-06T19:53:58.754Z,66.36
2024-01-06T19:56:25.533Z,65.28
2024-01-06T19:58:52.129Z,67.13
2024-01-06T20:01:18.975Z,66.70
2024-01-06T20:03:45.993Z,65.88
2024-01-06T20:06:14.405Z,67.73
2024-01-06T20:08:41.172Z,66.89
2024-01-06T20:11:07.908Z,66.43
2024-01-06T20:13:34.600Z,66.59
2024-01-06T20:16:02.767Z,65.77
2024-01-06T20:18:31.116Z,66.40
2024-01-06T20:20:59.160Z,67.36
2024-01-06T20:23:26.009Z,67.03
2024-01-06T20:25:53.410Z,68.08
2024-01-06T20:28:20.230Z,69.41
2024-01-06T20:30:47.029Z,67.63
2024-01-06T20:33:16.307Z,68.40
2024-01-06T20:35:43.901Z,67.42
2024-01-06T20:38:10.663Z,67.37
2024-01-06T20:40:37.460Z,68.28
2024-01-06T20:43:04.226Z,67.68
2024-01-06T20:45:31.069Z,67.43
2024-01-06T20:47:57.707Z,67.02
2024-01-06T20:50:24.597Z,67.11
2024-01-06T20:52:51.232Z,67.60
2024-01-06T20:55:18.220Z,67.52
2024-01-06T20:57:45.077Z,66.86
2024-01-06T21:00:12.060Z,66.48
2024-01-06T21:02:38.739Z,66.86
2024-01-06T21:05:06.195Z,68.64
2024-01-06T21:07:33.071Z,67.69
2024-01-06T21:10:04.496Z,67.72
2024-01-06T21:12:36.255Z,67.29
2024-01-06T21:15:03.770Z,67.69
2024-01-06T21:17:30.581Z,67.86
2024-01-06T21:19:57.682Z,67.86
2024-01-06T21:22:24.358Z,68.17
2024-01-06T21:24:52.521Z,67.34
2024-01-06T21:27:19.503Z,66.37
2024-01-06T21:29:46.240Z,66.69
2024-01-06T21:32:12.948Z,67.74
2024-01-06T21:34:39.705Z,67.11
2024-01-06T21:37:06.558Z,65.91
2024-01-06T21:39:33.347Z,65.88
2024-01-06T21:42:00.978Z,66.46
2024-01-06T21:44:27.705Z,66.46
2024-01-06T21:46:54.386Z,65.04
2024-01-06T21:49:21.478Z,66.21
2024-01-06T21:51:54.872Z,66.11
2024-01-06T21:54:21.937Z,67.24
2024-01-06T21:56:49.009Z,67.83
2024-01-06T21:59:15.831Z,67.96
2024-01-06T22:01:45.717Z,67.44
2024-01-06T22:04:13.553Z,67.69
2024-01-06T22:06:40.396Z,68.28
2024-01-06T22:09:11.310Z,68.56
2024-01-06T22:11:40.385Z,69.49
2024-01-06T22:14:07.308Z,68.56
2024-01-06T22:16:34.265Z,70.44
2024-01-06T22:19:01.069Z,69.06
2024-01-06T22:21:30.565Z,68.34
2024-01-06T22:24:01.004Z,68.46
2024-01-06T22:26:29.348Z,67.74
2024-01-06T22:28:59.519Z,69.07
2024-01-06T22:31:27.221Z,68.99
2024-01-06T22:33:54.312Z,69.39
2024-01-06T22:36:21.118Z,68.13
2024-01-06T22:38:54.992Z,68.14
2024-01-06T22:41:23.306Z,68.87
2024-01-06T22:43:50.219Z,69.22
2024-01-06T22:46:17.007Z,68.64
2024-01-06T22:48:44.573Z,69.88
2024-01-06T22:51:11.933Z,67.65
2024-01-06T22:53:38.932Z,67.75
2024-01-06T22:56:05.761Z,67.18
2024-01-06T22:58:34.225Z,67.15
2024-01-06T23:01:01.284Z,68.09
2024-01-06T23:03:28.540Z,68.54
2024-01-06T23:05:55.571Z,68.07
2024-01-06T23:08:22.297Z,69.18
2024-01-06T23:10:49.633Z,69.38
2024-01-06T23:13:16.510Z,69.71
2024-01-06T23:15:43.375Z,69.74
2024-01-06T23:18:10.748Z,69.03
2024-01-06T23:20:37.580Z,70.30
2024-01-06T23:23:04.404Z,70.63
2024-01-06T23:25:31.176Z,69.54
2024-01-06T23:27:57.907Z,68.86
2024-01-06T23:30:24.748Z,68.88
2024-01-06T23:32:51.744Z,68.94
2024-01-06T23:35:18.792Z,68.38
2024-01-06T23:37:49.003Z,68.10
2024-01-06T23:40:15.835Z,68.90
2024-01-06T23:42:42.657Z,69.84
2024-01-06T23:45:09.548Z,69.97
2024-01-06T23:47:36.382Z,68.93
2024-01-06T23:50:04.360Z,68.92
2024-01-06T23:52:31.162Z,67.79
2024-01-06T23:54:57.845Z,69.09
2024-01-06T23:57:24.576Z,69.94
2024-01-06T23:59:51.275Z,68.58
